sensor_id;sensor_type;location;lat;lon;timestamp;P1;durP1;ratioP1;P2;durP2;ratioP2
68097;SDS011;54886;47.036;15.466;2023-11-21T00:01:15;22.02;;;13.25;;
68097;SDS011;54886;47.036;15.466;2023-11-21T00:03:40;21.73;;;12.40;;
68097;SDS011;54886;47.036;15.466;2023-11-21T00:06:06;22.67;;;12.65;;
68097;SDS011;54886;47.036;15.466;2023-11-21T00:08:34;20.60;;;11.45;;
68097;SDS011;54886;47.036;15.466;2023-11-21T00:11:00;20.25;;;11.80;;
68097;SDS011;54886;47.036;15.466;2023-11-21T00:13:26;18.90;;;11.63;;
68097;SDS011;54886;47.036;15.466;2023-11-21T00:15:52;20.73;;;12.15;;
68097;SDS011;54886;47.036;15.466;2023-11-21T00:18:17;17.17;;;11.10;;
68097;SDS011;54886;47.036;15.466;2023-11-21T00:20:43;19.13;;;11.05;;
68097;SDS011;54886;47.036;15.466;2023-11-21T00:23:08;20.05;;;11.70;;
68097;SDS011;54886;47.036;15.466;2023-11-21T00:25:34;23.13;;;11.93;;
68097;SDS011;54886;47.036;15.466;2023-11-21T00:28:00;20.42;;;11.73;;
68097;SDS011;54886;47.036;15.466;2023-11-21T00:30:26;20.75;;;11.23;;
68097;SDS011;54886;47.036;15.466;2023-11-21T00:32:53;20.08;;;11.27;;
68097;SDS011;54886;47.036;15.466;2023-11-21T00:35:19;19.45;;;11.73;;
68097;SDS011;54886;47.036;15.466;2023-11-21T00:37:44;18.00;;;11.02;;
68097;SDS011;54886;47.036;15.466;2023-11-21T00:40:10;16.35;;;10.82;;
68097;SDS011;54886;47.036;15.466;2023-11-21T00:42:36;20.40;;;11.10;;
68097;SDS011;54886;47.036;15.466;2023-11-21T00:45:01;21.33;;;11.40;;
68097;SDS011;54886;47.036;15.466;2023-11-21T00:47:28;17.83;;;10.98;;
68097;SDS011;54886;47.036;15.466;2023-11-21T00:49:53;18.92;;;11.82;;
68097;SDS011;54886;47.036;15.466;2023-11-21T00:52:19;17.70;;;10.88;;
68097;SDS011;54886;47.036;15.466;2023-11-21T00:54:44;19.50;;;10.40;;
68097;SDS011;54886;47.036;15.466;2023-11-21T00:57:10;18.92;;;10.73;;
68097;SDS011;54886;47.036;15.466;2023-11-21T00:59:36;20.55;;;10.23;;
68097;SDS011;54886;47.036;15.466;2023-11-21T01:02:02;19.88;;;11.10;;
68097;SDS011;54886;47.036;15.466;2023-11-21T01:04:29;20.30;;;11.43;;
68097;SDS011;54886;47.036;15.466;2023-11-21T01:06:56;18.65;;;10.57;;
68097;SDS011;54886;47.036;15.466;2023-11-21T01:09:22;15.45;;;10.27;;
68097;SDS011;54886;47.036;15.466;2023-11-21T01:11:47;18.13;;;11.15;;
68097;SDS011;54886;47.036;15.466;2023-11-21T01:14:13;17.83;;;10.88;;
68097;SDS011;54886;47.036;15.466;2023-11-21T01:16:38;19.08;;;11.10;;
68097;SDS011;54886;47.036;15.466;2023-11-21T01:19:04;16.50;;;11.35;;
68097;SDS011;54886;47.036;15.466;2023-11-21T01:21:29;18.85;;;10.70;;
68097;SDS011;54886;47.036;15.466;2023-11-21T01:23:55;20.40;;;12.00;;
68097;SDS011;54886;47.036;15.466;2023-11-21T01:26:21;19.95;;;10.30;;
68097;SDS011;54886;47.036;15.466;2023-11-21T01:28:46;21.17;;;11.95;;
68097;SDS011;54886;47.036;15.466;2023-11-21T01:31:13;17.42;;;10.63;;
68097;SDS011;54886;47.036;15.466;2023-11-21T01:33:39;19.73;;;10.88;;
68097;SDS011;54886;47.036;15.466;2023-11-21T01:36:05;18.35;;;10.43;;
68097;SDS011;54886;47.036;15.466;2023-11-21T01:38:31;18.50;;;10.75;;
68097;SDS011;54886;47.036;15.466;2023-11-21T01:40:57;16.73;;;10.50;;
68097;SDS011;54886;47.036;15.466;2023-11-21T01:43:22;18.17;;;10.88;;
68097;SDS011;54886;47.036;15.466;2023-11-21T01:45:47;16.85;;;10.63;;
68097;SDS011;54886;47.036;15.466;2023-11-21T01:48:13;19.73;;;10.68;;
68097;SDS011;54886;47.036;15.466;2023-11-21T01:50:41;16.40;;;10.52;;
68097;SDS011;54886;47.036;15.466;2023-11-21T01:53:07;19.23;;;11.07;;
68097;SDS011;54886;47.036;15.466;2023-11-21T01:55:33;18.67;;;11.32;;
68097;SDS011;54886;47.036;15.466;2023-11-21T01:57:58;17.75;;;9.95;;
68097;SDS011;54886;47.036;15.466;2023-11-21T02:00:25;19.55;;;10.82;;
68097;SDS011;54886;47.036;15.466;2023-11-21T02:02:52;19.25;;;10.85;;
68097;SDS011;54886;47.036;15.466;2023-11-21T02:05:18;16.30;;;9.98;;
68097;SDS011;54886;47.036;15.466;2023-11-21T02:07:45;19.55;;;10.45;;
68097;SDS011;54886;47.036;15.466;2023-11-21T02:10:13;18.33;;;10.60;;
68097;SDS011;54886;47.036;15.466;2023-11-21T02:12:40;19.63;;;11.10;;
68097;SDS011;54886;47.036;15.466;2023-11-21T02:15:07;20.95;;;11.48;;
68097;SDS011;54886;47.036;15.466;2023-11-21T02:17:39;20.45;;;10.63;;
68097;SDS011;54886;47.036;15.466;2023-11-21T02:20:08;18.63;;;10.77;;
68097;SDS011;54886;47.036;15.466;2023-11-21T02:22:40;19.50;;;10.23;;
68097;SDS011;54886;47.036;15.466;2023-11-21T02:25:07;16.95;;;10.60;;
68097;SDS011;54886;47.036;15.466;2023-11-21T02:27:33;15.18;;;9.63;;
68097;SDS011;54886;47.036;15.466;2023-11-21T02:29:58;18.83;;;10.32;;
68097;SDS011;54886;47.036;15.466;2023-11-21T02:32:25;18.23;;;10.18;;
68097;SDS011;54886;47.036;15.466;2023-11-21T02:34:51;18.00;;;10.00;;
68097;SDS011;54886;47.036;15.466;2023-11-21T02:37:16;19.52;;;9.43;;
68097;SDS011;54886;47.036;15.466;2023-11-21T02:39:42;18.13;;;10.05;;
68097;SDS011;54886;47.036;15.466;2023-11-21T02:42:08;17.38;;;9.82;;
68097;SDS011;54886;47.036;15.466;2023-11-21T02:44:33;17.73;;;9.65;;
68097;SDS011;54886;47.036;15.466;2023-11-21T02:46:59;17.17;;;9.93;;
68097;SDS011;54886;47.036;15.466;2023-11-21T02:49:25;18.15;;;9.52;;
68097;SDS011;54886;47.036;15.466;2023-11-21T02:54:19;14.90;;;8.07;;
68097;SDS011;54886;47.036;15.466;2023-11-21T02:56:46;16.77;;;9.13;;
68097;SDS011;54886;47.036;15.466;2023-11-21T02:59:12;14.93;;;8.85;;
68097;SDS011;54886;47.036;15.466;2023-11-21T03:01:37;14.65;;;8.70;;
68097;SDS011;54886;47.036;15.466;2023-11-21T03:04:03;15.57;;;8.57;;
68097;SDS011;54886;47.036;15.466;2023-11-21T03:06:28;16.15;;;9.20;;
68097;SDS011;54886;47.036;15.466;2023-11-21T03:08:54;14.98;;;8.15;;
68097;SDS011;54886;47.036;15.466;2023-11-21T03:11:19;15.23;;;8.75;;
68097;SDS011;54886;47.036;15.466;2023-11-21T03:13:45;17.33;;;8.35;;
68097;SDS011;54886;47.036;15.466;2023-11-21T03:16:10;13.88;;;8.23;;
68097;SDS011;54886;47.036;15.466;2023-11-21T03:18:39;12.23;;;7.30;;
68097;SDS011;54886;47.036;15.466;2023-11-21T03:21:05;14.07;;;7.35;;
68097;SDS011;54886;47.036;15.466;2023-11-21T03:23:33;15.85;;;7.28;;
68097;SDS011;54886;47.036;15.466;2023-11-21T03:25:59;14.35;;;8.00;;
68097;SDS011;54886;47.036;15.466;2023-11-21T03:28:25;14.50;;;8.15;;
68097;SDS011;54886;47.036;15.466;2023-11-21T03:30:51;14.95;;;8.30;;
68097;SDS011;54886;47.036;15.466;2023-11-21T03:33:17;12.32;;;7.57;;
68097;SDS011;54886;47.036;15.466;2023-11-21T03:35:42;13.88;;;8.07;;
68097;SDS011;54886;47.036;15.466;2023-11-21T03:38:09;15.10;;;8.15;;
68097;SDS011;54886;47.036;15.466;2023-11-21T03:40:35;16.15;;;8.07;;
68097;SDS011;54886;47.036;15.466;2023-11-21T03:43:00;13.90;;;8.10;;
68097;SDS011;54886;47.036;15.466;2023-11-21T03:45:26;13.45;;;8.10;;
68097;SDS011;54886;47.036;15.466;2023-11-21T03:47:51;17.08;;;9.50;;
68097;SDS011;54886;47.036;15.466;2023-11-21T03:50:16;18.92;;;8.82;;
68097;SDS011;54886;47.036;15.466;2023-11-21T03:52:42;16.38;;;9.57;;
68097;SDS011;54886;47.036;15.466;2023-11-21T03:55:07;16.75;;;9.57;;
68097;SDS011;54886;47.036;15.466;2023-11-21T03:57:33;20.13;;;10.93;;
68097;SDS011;54886;47.036;15.466;2023-11-21T03:59:59;15.27;;;9.57;;
68097;SDS011;54886;47.036;15.466;2023-11-21T04:02:24;17.80;;;10.38;;
68097;SDS011;54886;47.036;15.466;2023-11-21T04:04:51;22.10;;;10.73;;
68097;SDS011;54886;47.036;15.466;2023-11-21T04:07:16;17.02;;;10.10;;
68097;SDS011;54886;47.036;15.466;2023-11-21T04:09:42;16.25;;;9.65;;
68097;SDS011;54886;47.036;15.466;2023-11-21T04:12:08;15.27;;;9.10;;
68097;SDS011;54886;47.036;15.466;2023-11-21T04:14:36;15.98;;;9.93;;
68097;SDS011;54886;47.036;15.466;2023-11-21T04:17:01;15.90;;;10.20;;
68097;SDS011;54886;47.036;15.466;2023-11-21T04:19:29;17.95;;;9.05;;
68097;SDS011;54886;47.036;15.466;2023-11-21T04:21:54;16.58;;;9.40;;
68097;SDS011;54886;47.036;15.466;2023-11-21T04:24:19;17.17;;;9.45;;
68097;SDS011;54886;47.036;15.466;2023-11-21T04:26:45;17.98;;;9.30;;
68097;SDS011;54886;47.036;15.466;2023-11-21T04:29:11;15.07;;;9.40;;
68097;SDS011;54886;47.036;15.466;2023-11-21T04:31:36;16.40;;;9.38;;
68097;SDS011;54886;47.036;15.466;2023-11-21T04:34:02;16.65;;;9.43;;
68097;SDS011;54886;47.036;15.466;2023-11-21T04:36:29;17.30;;;9.37;;
68097;SDS011;54886;47.036;15.466;2023-11-21T04:38:55;16.38;;;8.80;;
68097;SDS011;54886;47.036;15.466;2023-11-21T04:41:21;13.88;;;8.23;;
68097;SDS011;54886;47.036;15.466;2023-11-21T04:43:46;14.30;;;8.73;;
68097;SDS011;54886;47.036;15.466;2023-11-21T04:46:12;14.60;;;8.27;;
68097;SDS011;54886;47.036;15.466;2023-11-21T04:48:37;14.85;;;9.02;;
68097;SDS011;54886;47.036;15.466;2023-11-21T04:51:03;14.35;;;7.93;;
68097;SDS011;54886;47.036;15.466;2023-11-21T04:53:29;13.63;;;7.60;;
68097;SDS011;54886;47.036;15.466;2023-11-21T04:55:55;15.90;;;8.20;;
68097;SDS011;54886;47.036;15.466;2023-11-21T04:58:20;17.20;;;8.85;;
68097;SDS011;54886;47.036;15.466;2023-11-21T05:00:45;15.95;;;8.93;;
68097;SDS011;54886;47.036;15.466;2023-11-21T05:03:11;13.35;;;7.90;;
68097;SDS011;54886;47.036;15.466;2023-11-21T05:05:37;15.80;;;8.75;;
68097;SDS011;54886;47.036;15.466;2023-11-21T05:08:02;15.48;;;9.00;;
68097;SDS011;54886;47.036;15.466;2023-11-21T05:10:28;18.15;;;9.13;;
68097;SDS011;54886;47.036;15.466;2023-11-21T05:12:54;16.30;;;8.68;;
68097;SDS011;54886;47.036;15.466;2023-11-21T05:15:20;15.15;;;8.52;;
68097;SDS011;54886;47.036;15.466;2023-11-21T05:17:46;15.15;;;8.70;;
68097;SDS011;54886;47.036;15.466;2023-11-21T05:20:14;14.25;;;8.95;;
68097;SDS011;54886;47.036;15.466;2023-11-21T05:22:48;18.00;;;9.65;;
68097;SDS011;54886;47.036;15.466;2023-11-21T05:25:14;14.02;;;9.15;;
68097;SDS011;54886;47.036;15.466;2023-11-21T05:27:40;14.75;;;9.57;;
68097;SDS011;54886;47.036;15.466;2023-11-21T05:30:06;17.98;;;10.25;;
68097;SDS011;54886;47.036;15.466;2023-11-21T05:32:34;16.63;;;9.93;;
68097;SDS011;54886;47.036;15.466;2023-11-21T05:35:00;16.90;;;10.32;;
68097;SDS011;54886;47.036;15.466;2023-11-21T05:37:26;17.73;;;10.73;;
68097;SDS011;54886;47.036;15.466;2023-11-21T05:39:52;19.23;;;12.00;;
68097;SDS011;54886;47.036;15.466;2023-11-21T05:42:19;17.67;;;11.75;;
68097;SDS011;54886;47.036;15.466;2023-11-21T05:44:45;19.42;;;11.70;;
68097;SDS011;54886;47.036;15.466;2023-11-21T05:47:11;20.00;;;11.25;;
68097;SDS011;54886;47.036;15.466;2023-11-21T05:49:38;18.70;;;11.15;;
68097;SDS011;54886;47.036;15.466;2023-11-21T05:52:04;18.10;;;11.38;;
68097;SDS011;54886;47.036;15.466;2023-11-21T05:54:30;17.13;;;10.52;;
68097;SDS011;54886;47.036;15.466;2023-11-21T05:56:55;20.42;;;11.55;;
68097;SDS011;54886;47.036;15.466;2023-11-21T05:59:21;18.10;;;10.90;;
68097;SDS011;54886;47.036;15.466;2023-11-21T06:01:46;19.58;;;10.85;;
68097;SDS011;54886;47.036;15.466;2023-11-21T06:04:11;19.05;;;11.40;;
68097;SDS011;54886;47.036;15.466;2023-11-21T06:06:37;20.40;;;11.48;;
68097;SDS011;54886;47.036;15.466;2023-11-21T06:09:03;16.30;;;10.05;;
68097;SDS011;54886;47.036;15.466;2023-11-21T06:11:30;19.15;;;10.13;;
68097;SDS011;54886;47.036;15.466;2023-11-21T06:13:57;15.98;;;10.73;;
68097;SDS011;54886;47.036;15.466;2023-11-21T06:16:23;16.02;;;11.00;;
68097;SDS011;54886;47.036;15.466;2023-11-21T06:18:49;16.52;;;10.95;;
68097;SDS011;54886;47.036;15.466;2023-11-21T06:21:14;20.00;;;11.23;;
68097;SDS011;54886;47.036;15.466;2023-11-21T06:23:41;17.55;;;10.90;;
68097;SDS011;54886;47.036;15.466;2023-11-21T06:26:07;18.67;;;10.77;;
68097;SDS011;54886;47.036;15.466;2023-11-21T06:28:34;16.85;;;11.07;;
68097;SDS011;54886;47.036;15.466;2023-11-21T06:30:59;18.40;;;11.32;;
68097;SDS011;54886;47.036;15.466;2023-11-21T06:33:30;17.10;;;11.13;;
68097;SDS011;54886;47.036;15.466;2023-11-21T06:35:57;18.65;;;10.55;;
68097;SDS011;54886;47.036;15.466;2023-11-21T06:38:23;17.23;;;11.32;;
68097;SDS011;54886;47.036;15.466;2023-11-21T06:40:48;16.75;;;10.63;;
68097;SDS011;54886;47.036;15.466;2023-11-21T06:43:13;19.90;;;11.25;;
68097;SDS011;54886;47.036;15.466;2023-11-21T06:45:40;18.45;;;11.32;;
68097;SDS011;54886;47.036;15.466;2023-11-21T06:48:06;16.95;;;11.27;;
68097;SDS011;54886;47.036;15.466;2023-11-21T06:50:31;16.60;;;11.63;;
68097;SDS011;54886;47.036;15.466;2023-11-21T06:52:56;18.00;;;11.05;;
68097;SDS011;54886;47.036;15.466;2023-11-21T06:55:22;20.65;;;12.57;;
68097;SDS011;54886;47.036;15.466;2023-11-21T06:57:47;22.42;;;12.48;;
68097;SDS011;54886;47.036;15.466;2023-11-21T07:00:13;21.02;;;12.18;;
68097;SDS011;54886;47.036;15.466;2023-11-21T07:02:42;19.48;;;11.45;;
68097;SDS011;54886;47.036;15.466;2023-11-21T07:05:08;17.75;;;11.23;;
68097;SDS011;54886;47.036;15.466;2023-11-21T07:07:34;17.40;;;10.80;;
68097;SDS011;54886;47.036;15.466;2023-11-21T07:10:01;21.17;;;12.07;;
68097;SDS011;54886;47.036;15.466;2023-11-21T07:12:28;19.67;;;11.77;;
68097;SDS011;54886;47.036;15.466;2023-11-21T07:14:55;19.98;;;11.60;;
68097;SDS011;54886;47.036;15.466;2023-11-21T07:17:20;18.75;;;10.93;;
68097;SDS011;54886;47.036;15.466;2023-11-21T07:19:48;18.77;;;12.73;;
68097;SDS011;54886;47.036;15.466;2023-11-21T07:22:13;22.58;;;11.93;;
68097;SDS011;54886;47.036;15.466;2023-11-21T07:24:40;20.13;;;12.27;;
68097;SDS011;54886;47.036;15.466;2023-11-21T07:27:05;20.77;;;11.73;;
68097;SDS011;54886;47.036;15.466;2023-11-21T07:29:31;22.23;;;12.25;;
68097;SDS011;54886;47.036;15.466;2023-11-21T07:31:56;20.50;;;11.90;;
68097;SDS011;54886;47.036;15.466;2023-11-21T07:34:21;20.40;;;12.23;;
68097;SDS011;54886;47.036;15.466;2023-11-21T07:36:47;19.58;;;12.43;;
68097;SDS011;54886;47.036;15.466;2023-11-21T07:39:13;20.75;;;12.05;;
68097;SDS011;54886;47.036;15.466;2023-11-21T07:41:41;22.58;;;12.88;;
68097;SDS011;54886;47.036;15.466;2023-11-21T07:44:10;20.67;;;12.30;;
68097;SDS011;54886;47.036;15.466;2023-11-21T07:46:36;18.35;;;12.05;;
68097;SDS011;54886;47.036;15.466;2023-11-21T07:49:01;22.52;;;11.85;;
68097;SDS011;54886;47.036;15.466;2023-11-21T07:51:26;18.80;;;11.88;;
68097;SDS011;54886;47.036;15.466;2023-11-21T07:53:52;19.42;;;11.60;;
68097;SDS011;54886;47.036;15.466;2023-11-21T07:56:17;21.73;;;11.43;;
68097;SDS011;54886;47.036;15.466;2023-11-21T07:58:42;19.65;;;11.57;;
68097;SDS011;54886;47.036;15.466;2023-11-21T08:01:08;20.65;;;12.00;;
68097;SDS011;54886;47.036;15.466;2023-11-21T08:03:33;21.02;;;12.43;;
68097;SDS011;54886;47.036;15.466;2023-11-21T08:05:59;21.65;;;11.48;;
68097;SDS011;54886;47.036;15.466;2023-11-21T08:08:24;17.92;;;12.00;;
68097;SDS011;54886;47.036;15.466;2023-11-21T08:10:50;18.90;;;11.80;;
68097;SDS011;54886;47.036;15.466;2023-11-21T08:13:25;18.30;;;10.95;;
68097;SDS011;54886;47.036;15.466;2023-11-21T08:15:55;19.10;;;11.25;;
68097;SDS011;54886;47.036;15.466;2023-11-21T08:18:21;17.77;;;11.32;;
68097;SDS011;54886;47.036;15.466;2023-11-21T08:20:47;17.38;;;11.32;;
68097;SDS011;54886;47.036;15.466;2023-11-21T08:23:16;17.25;;;11.43;;
68097;SDS011;54886;47.036;15.466;2023-11-21T08:25:44;20.88;;;10.73;;
68097;SDS011;54886;47.036;15.466;2023-11-21T08:28:10;17.88;;;11.02;;
68097;SDS011;54886;47.036;15.466;2023-11-21T08:30:35;18.23;;;11.20;;
68097;SDS011;54886;47.036;15.466;2023-11-21T08:33:01;18.00;;;10.48;;
68097;SDS011;54886;47.036;15.466;2023-11-21T08:35:28;20.85;;;11.00;;
68097;SDS011;54886;47.036;15.466;2023-11-21T08:37:53;17.20;;;10.43;;
68097;SDS011;54886;47.036;15.466;2023-11-21T08:40:19;21.13;;;10.88;;
68097;SDS011;54886;47.036;15.466;2023-11-21T08:42:46;15.80;;;10.50;;
68097;SDS011;54886;47.036;15.466;2023-11-21T08:45:12;16.42;;;8.88;;
68097;SDS011;54886;47.036;15.466;2023-11-21T08:47:39;17.42;;;9.60;;
68097;SDS011;54886;47.036;15.466;2023-11-21T08:50:07;18.65;;;9.52;;
68097;SDS011;54886;47.036;15.466;2023-11-21T08:52:35;17.48;;;9.23;;
68097;SDS011;54886;47.036;15.466;2023-11-21T08:55:02;16.80;;;9.77;;
68097;SDS011;54886;47.036;15.466;2023-11-21T08:57:32;15.50;;;8.95;;
68097;SDS011;54886;47.036;15.466;2023-11-21T09:00:02;16.83;;;8.30;;
68097;SDS011;54886;47.036;15.466;2023-11-21T09:02:32;13.75;;;7.75;;
68097;SDS011;54886;47.036;15.466;2023-11-21T09:04:59;14.55;;;8.30;;
68097;SDS011;54886;47.036;15.466;2023-11-21T09:07:24;15.55;;;8.10;;
68097;SDS011;54886;47.036;15.466;2023-11-21T09:09:50;13.85;;;8.27;;
68097;SDS011;54886;47.036;15.466;2023-11-21T09:12:16;15.98;;;8.80;;
68097;SDS011;54886;47.036;15.466;2023-11-21T09:14:42;16.23;;;8.82;;
68097;SDS011;54886;47.036;15.466;2023-11-21T09:17:09;17.50;;;9.67;;
68097;SDS011;54886;47.036;15.466;2023-11-21T09:19:37;17.38;;;9.20;;
68097;SDS011;54886;47.036;15.466;2023-11-21T09:22:03;16.63;;;9.05;;
68097;SDS011;54886;47.036;15.466;2023-11-21T09:24:30;14.23;;;8.98;;
68097;SDS011;54886;47.036;15.466;2023-11-21T09:26:58;14.45;;;8.55;;
68097;SDS011;54886;47.036;15.466;2023-11-21T09:29:25;15.52;;;8.98;;
68097;SDS011;54886;47.036;15.466;2023-11-21T09:31:53;14.25;;;8.15;;
68097;SDS011;54886;47.036;15.466;2023-11-21T09:34:20;13.60;;;7.78;;
68097;SDS011;54886;47.036;15.466;2023-11-21T09:36:48;13.55;;;7.65;;
68097;SDS011;54886;47.036;15.466;2023-11-21T09:39:13;14.98;;;7.30;;
68097;SDS011;54886;47.036;15.466;2023-11-21T09:44:11;12.07;;;6.97;;
68097;SDS011;54886;47.036;15.466;2023-11-21T09:46:41;12.80;;;6.70;;
68097;SDS011;54886;47.036;15.466;2023-11-21T09:49:08;11.30;;;6.78;;
68097;SDS011;54886;47.036;15.466;2023-11-21T09:51:37;13.43;;;6.25;;
68097;SDS011;54886;47.036;15.466;2023-11-21T09:54:06;12.27;;;6.45;;
68097;SDS011;54886;47.036;15.466;2023-11-21T09:59:00;10.38;;;6.07;;
68097;SDS011;54886;47.036;15.466;2023-11-21T10:01:31;13.25;;;6.57;;
68097;SDS011;54886;47.036;15.466;2023-11-21T10:03:57;11.15;;;5.88;;
68097;SDS011;54886;47.036;15.466;2023-11-21T10:06:24;9.48;;;5.45;;
68097;SDS011;54886;47.036;15.466;2023-11-21T10:08:52;12.10;;;5.65;;
68097;SDS011;54886;47.036;15.466;2023-11-21T10:11:18;8.93;;;5.00;;
68097;SDS011;54886;47.036;15.466;2023-11-21T10:13:44;8.43;;;4.68;;
68097;SDS011;54886;47.036;15.466;2023-11-21T10:16:12;11.65;;;5.43;;
68097;SDS011;54886;47.036;15.466;2023-11-21T10:18:41;10.70;;;5.43;;
68097;SDS011;54886;47.036;15.466;2023-11-21T10:21:07;10.02;;;5.22;;
68097;SDS011;54886;47.036;15.466;2023-11-21T10:23:34;12.07;;;5.35;;
68097;SDS011;54886;47.036;15.466;2023-11-21T10:26:00;10.45;;;5.70;;
68097;SDS011;54886;47.036;15.466;2023-11-21T10:28:26;10.43;;;5.82;;
68097;SDS011;54886;47.036;15.466;2023-11-21T10:30:51;11.38;;;7.22;;
68097;SDS011;54886;47.036;15.466;2023-11-21T10:33:17;12.20;;;6.32;;
68097;SDS011;54886;47.036;15.466;2023-11-21T10:35:52;10.60;;;6.25;;
68097;SDS011;54886;47.036;15.466;2023-11-21T10:38:19;11.70;;;6.57;;
68097;SDS011;54886;47.036;15.466;2023-11-21T10:40:49;15.43;;;6.53;;
68097;SDS011;54886;47.036;15.466;2023-11-21T10:43:15;12.95;;;6.50;;
68097;SDS011;54886;47.036;15.466;2023-11-21T10:45:42;10.32;;;6.55;;
68097;SDS011;54886;47.036;15.466;2023-11-21T10:48:14;11.07;;;5.90;;
68097;SDS011;54886;47.036;15.466;2023-11-21T10:50:40;12.65;;;6.53;;
68097;SDS011;54886;47.036;15.466;2023-11-21T10:53:06;12.82;;;6.45;;
68097;SDS011;54886;47.036;15.466;2023-11-21T10:55:32;14.38;;;6.72;;
68097;SDS011;54886;47.036;15.466;2023-11-21T10:57:59;12.05;;;6.45;;
68097;SDS011;54886;47.036;15.466;2023-11-21T11:00:27;13.75;;;7.00;;
68097;SDS011;54886;47.036;15.466;2023-11-21T11:02:53;14.32;;;6.90;;
68097;SDS011;54886;47.036;15.466;2023-11-21T11:05:20;11.07;;;5.80;;
68097;SDS011;54886;47.036;15.466;2023-11-21T11:07:50;10.43;;;6.78;;
68097;SDS011;54886;47.036;15.466;2023-11-21T11:10:19;11.10;;;6.07;;
68097;SDS011;54886;47.036;15.466;2023-11-21T11:12:47;12.80;;;6.80;;
68097;SDS011;54886;47.036;15.466;2023-11-21T11:15:13;13.40;;;6.97;;
68097;SDS011;54886;47.036;15.466;2023-11-21T11:17:40;11.35;;;6.78;;
68097;SDS011;54886;47.036;15.466;2023-11-21T11:20:07;12.00;;;6.10;;
68097;SDS011;54886;47.036;15.466;2023-11-21T11:25:42;10.88;;;6.00;;
68097;SDS011;54886;47.036;15.466;2023-11-21T11:37:15;10.63;;;5.65;;
68097;SDS011;54886;47.036;15.466;2023-11-21T11:39:41;12.77;;;6.45;;
68097;SDS011;54886;47.036;15.466;2023-11-21T11:42:11;12.43;;;6.63;;
68097;SDS011;54886;47.036;15.466;2023-11-21T11:47:23;10.98;;;5.55;;
68097;SDS011;54886;47.036;15.466;2023-11-21T11:52:41;13.10;;;5.38;;
68097;SDS011;54886;47.036;15.466;2023-11-21T11:55:20;10.38;;;6.00;;
68097;SDS011;54886;47.036;15.466;2023-11-21T12:02:50;11.00;;;5.93;;
68097;SDS011;54886;47.036;15.466;2023-11-21T12:05:17;10.23;;;6.57;;
68097;SDS011;54886;47.036;15.466;2023-11-21T12:07:44;10.70;;;6.97;;
68097;SDS011;54886;47.036;15.466;2023-11-21T12:10:14;14.63;;;7.38;;
68097;SDS011;54886;47.036;15.466;2023-11-21T12:12:44;10.27;;;6.32;;
68097;SDS011;54886;47.036;15.466;2023-11-21T12:15:11;10.88;;;6.35;;
68097;SDS011;54886;47.036;15.466;2023-11-21T12:17:38;12.48;;;6.80;;
68097;SDS011;54886;47.036;15.466;2023-11-21T12:20:04;9.82;;;6.28;;
68097;SDS011;54886;47.036;15.466;2023-11-21T12:22:31;11.05;;;6.22;;
68097;SDS011;54886;47.036;15.466;2023-11-21T12:24:56;12.13;;;7.47;;
68097;SDS011;54886;47.036;15.466;2023-11-21T12:27:22;11.70;;;7.28;;
68097;SDS011;54886;47.036;15.466;2023-11-21T12:29:47;10.93;;;6.57;;
68097;SDS011;54886;47.036;15.466;2023-11-21T12:32:13;12.65;;;6.88;;
68097;SDS011;54886;47.036;15.466;2023-11-21T12:34:40;12.60;;;7.18;;
68097;SDS011;54886;47.036;15.466;2023-11-21T12:37:05;9.05;;;5.82;;
68097;SDS011;54886;47.036;15.466;2023-11-21T12:39:31;11.68;;;6.40;;
68097;SDS011;54886;47.036;15.466;2023-11-21T12:41:57;11.40;;;6.32;;
68097;SDS011;54886;47.036;15.466;2023-11-21T12:44:22;11.15;;;6.32;;
68097;SDS011;54886;47.036;15.466;2023-11-21T12:46:49;9.40;;;6.00;;
68097;SDS011;54886;47.036;15.466;2023-11-21T12:49:15;11.75;;;6.55;;
68097;SDS011;54886;47.036;15.466;2023-11-21T12:51:44;11.05;;;6.55;;
68097;SDS011;54886;47.036;15.466;2023-11-21T12:54:11;12.82;;;6.28;;
68097;SDS011;54886;47.036;15.466;2023-11-21T12:56:38;11.52;;;6.05;;
68097;SDS011;54886;47.036;15.466;2023-11-21T12:59:04;11.50;;;5.78;;
68097;SDS011;54886;47.036;15.466;2023-11-21T13:01:29;11.30;;;6.65;;
68097;SDS011;54886;47.036;15.466;2023-11-21T13:03:59;10.52;;;6.07;;
68097;SDS011;54886;47.036;15.466;2023-11-21T13:06:26;10.40;;;6.20;;
68097;SDS011;54886;47.036;15.466;2023-11-21T13:08:51;10.80;;;6.25;;
68097;SDS011;54886;47.036;15.466;2023-11-21T13:11:17;10.18;;;6.30;;
68097;SDS011;54886;47.036;15.466;2023-11-21T13:13:43;10.68;;;6.90;;
68097;SDS011;54886;47.036;15.466;2023-11-21T13:16:08;11.52;;;6.05;;
68097;SDS011;54886;47.036;15.466;2023-11-21T13:18:35;9.82;;;5.97;;
68097;SDS011;54886;47.036;15.466;2023-11-21T13:21:04;11.45;;;6.78;;
68097;SDS011;54886;47.036;15.466;2023-11-21T13:23:36;10.70;;;6.20;;
68097;SDS011;54886;47.036;15.466;2023-11-21T13:26:02;10.68;;;6.30;;
68097;SDS011;54886;47.036;15.466;2023-11-21T13:28:29;10.52;;;6.13;;
68097;SDS011;54886;47.036;15.466;2023-11-21T13:30:57;11.27;;;5.90;;
68097;SDS011;54886;47.036;15.466;2023-11-21T13:33:28;12.27;;;6.30;;
68097;SDS011;54886;47.036;15.466;2023-11-21T13:35:53;12.38;;;6.50;;
68097;SDS011;54886;47.036;15.466;2023-11-21T13:38:21;12.35;;;6.43;;
68097;SDS011;54886;47.036;15.466;2023-11-21T13:40:53;12.93;;;6.72;;
68097;SDS011;54886;47.036;15.466;2023-11-21T13:43:20;12.90;;;6.93;;
68097;SDS011;54886;47.036;15.466;2023-11-21T13:45:51;10.30;;;6.10;;
68097;SDS011;54886;47.036;15.466;2023-11-21T13:48:27;10.43;;;7.07;;
68097;SDS011;54886;47.036;15.466;2023-11-21T13:53:45;12.52;;;7.15;;
68097;SDS011;54886;47.036;15.466;2023-11-21T13:56:18;13.85;;;7.30;;
68097;SDS011;54886;47.036;15.466;2023-11-21T13:58:51;12.40;;;7.15;;
68097;SDS011;54886;47.036;15.466;2023-11-21T14:01:17;12.20;;;7.50;;
68097;SDS011;54886;47.036;15.466;2023-11-21T14:04:09;12.07;;;7.45;;
68097;SDS011;54886;47.036;15.466;2023-11-21T14:06:42;14.38;;;7.75;;
68097;SDS011;54886;47.036;15.466;2023-11-21T14:09:18;11.65;;;7.05;;
68097;SDS011;54886;47.036;15.466;2023-11-21T14:11:50;15.52;;;7.28;;
68097;SDS011;54886;47.036;15.466;2023-11-21T14:14:21;11.05;;;6.43;;
68097;SDS011;54886;47.036;15.466;2023-11-21T14:16:47;11.57;;;6.90;;
68097;SDS011;54886;47.036;15.466;2023-11-21T14:19:13;14.27;;;6.60;;
68097;SDS011;54886;47.036;15.466;2023-11-21T14:21:42;10.63;;;6.78;;
68097;SDS011;54886;47.036;15.466;2023-11-21T14:24:08;13.20;;;6.57;;
68097;SDS011;54886;47.036;15.466;2023-11-21T14:26:34;11.68;;;6.22;;
68097;SDS011;54886;47.036;15.466;2023-11-21T14:29:00;12.65;;;6.32;;
68097;SDS011;54886;47.036;15.466;2023-11-21T14:31:26;10.32;;;6.00;;
68097;SDS011;54886;47.036;15.466;2023-11-21T14:33:54;10.57;;;6.40;;
68097;SDS011;54886;47.036;15.466;2023-11-21T14:36:19;12.68;;;7.25;;
68097;SDS011;54886;47.036;15.466;2023-11-21T14:38:45;11.20;;;6.70;;
68097;SDS011;54886;47.036;15.466;2023-11-21T14:41:10;13.05;;;8.27;;
68097;SDS011;54886;47.036;15.466;2023-11-21T14:43:36;11.40;;;7.22;;
68097;SDS011;54886;47.036;15.466;2023-11-21T14:46:03;12.50;;;7.37;;